Česky Dansk Deutsch English Español Suomi Français Magyar Italiano Nederlands norsk Polski Português svenska Türkçe

 

Het Weer

Obo (Central African Republic)

13:00, 5 mei 2008 (GMT)

NWNNE
WE
SWSSE
Home            
Obo Yalinga Bangassou Bria Arua Kisangani Juba Alindao Bambari Butembo Fort Portal Birao Kasese Gulu Masindi Kadugli N'Dele Malakal Nyala Gemena Lira Rutshuru Mbarara

Om een weerknop op uw website of weblog te plaatsen, copieer onderstaande code en plak die in uw pagina. In het eerste vakje staat HTML-code, in het tweede vakje UBB-code.


Add to Google

Details

Wind speed:2 bf, 5 kn, 2.6 m/s, 5.8 miles/h, 9.3 km/h
Wind direction:ENE, 070° - SE, 140°
Visibility:Greater than 10000 m, 10 km, 32800 ft, 6.2 miles
Clouds:Ein wenig bewölkt at 1300 ft, 396 m
Ein wenig bewölkt at 3300 ft, 1006 m
Geschlossene Wolkendecke at 14000 ft, 4267 m
Het Weer:light thunderstorm rain
Temperature:21°C, 70°F
Dew-point:20°C, 68°F
Atmospheric pressure:1014 hPa, 760.6 mmHg, 29.94 inHg, 1.001 atm
Relative humidity:94.0 %
METAR:FEFB 051300Z 11005KT 070V140 9999 -TSRA FEW013 FEW033CB OVC140 21/20 Q1014 NOSIG

Snelkoppelingen

Actuele weersinformatie van de hele wereld. Voeg locaties toe met het plus (+) symbool. Deze snelkoppelingen kunnen worden toegevoegd aan Google.

Lid van de Technetium groep

website free tracking
StatCounter NetStat W3C Validator

24-04-2018 12:20:39
astro.technetium.be money.technetium.be phote.technetium.be tafeltennistafel.technetium.be www.ligfiets.net